Time;durP1;ratioP1;P1;durP2;ratioP2;P2;SDS_P1;SDS_P2;PMS_P1;PMS_P2;Temp;Humidity;BMP_temperature;BMP_pressure;BME280_temperature;BME280_humidity;BME280_pressure;Samples;Min_cycle;Max_cycle;Signal;HPM_P1;HPM_P2
2022/03/20 00:00:36;;;;;;;4.53;1.83;;;;;;;5.18;63.70;103537.78;5012677;28;20025;-55
2022/03/20 00:03:11;;;;;;;2.08;1.33;;;;;;;5.17;63.64;103536.88;5027322;28;20494;-57
2022/03/20 00:05:39;;;;;;;6.75;1.80;;;;;;;5.20;63.70;103532.59;5045051;28;20021;-55
2022/03/20 00:08:11;;;;;;;4.35;1.73;;;;;;;5.16;64.00;103526.38;5044844;28;20013;-55
2022/03/20 00:10:45;;;;;;;5.68;1.98;;;;;;;5.13;63.88;103527.16;5006015;28;20049;-54
2022/03/20 00:13:12;;;;;;;4.03;1.73;;;;;;;5.12;64.01;103524.50;5005421;28;20044;-53
2022/03/20 00:15:42;;;;;;;7.60;1.90;;;;;;;5.06;64.46;103533.91;5006330;28;20025;-57
2022/03/20 00:18:09;;;;;;;5.32;1.60;;;;;;;5.03;64.59;103528.56;5021310;28;20037;-57
2022/03/20 00:20:39;;;;;;;2.50;1.95;;;;;;;5.01;64.88;103532.88;5025914;28;20064;-56
2022/03/20 00:23:06;;;;;;;3.38;2.15;;;;;;;4.95;65.22;103514.38;5007351;28;20037;-53
2022/03/20 00:25:33;;;;;;;4.55;1.75;;;;;;;4.95;65.30;103519.59;5024831;28;20026;-55
2022/03/20 00:27:59;;;;;;;3.58;2.60;;;;;;;4.89;65.62;103509.84;5026103;28;20066;-54
2022/03/20 00:30:25;;;;;;;2.70;2.00;;;;;;;4.88;65.74;103509.78;5024178;28;20034;-54
2022/03/20 00:32:50;;;;;;;7.10;1.90;;;;;;;4.89;65.97;103515.06;5030780;28;20556;-55
2022/03/20 00:35:15;;;;;;;5.05;1.90;;;;;;;4.89;66.36;103503.72;5045271;28;20147;-54
2022/03/20 00:37:41;;;;;;;5.47;2.20;;;;;;;4.89;66.91;103507.22;5043490;28;20058;-56
2022/03/20 00:40:07;;;;;;;2.70;2.28;;;;;;;4.90;66.28;103505.47;5044114;28;20471;-59
2022/03/20 00:42:33;;;;;;;4.43;2.35;;;;;;;4.85;66.83;103502.72;5026317;28;20033;-55
2022/03/20 00:44:58;;;;;;;7.75;2.83;;;;;;;4.83;66.85;103501.78;5024973;28;20053;-56
2022/03/20 00:47:24;;;;;;;5.78;3.28;;;;;;;4.85;66.96;103496.63;5025100;28;20036;-54
2022/03/20 00:49:49;;;;;;;5.15;3.00;;;;;;;4.78;67.59;103493.81;5024651;28;20018;-55
2022/03/20 00:52:14;;;;;;;4.57;2.80;;;;;;;4.79;67.43;103492.97;5024893;28;20026;-57
2022/03/20 00:54:40;;;;;;;6.05;2.83;;;;;;;4.73;68.24;103492.75;5024764;28;20510;-55
2022/03/20 00:57:06;;;;;;;5.78;3.22;;;;;;;4.72;68.18;103490.13;5025457;28;20021;-60
2022/03/20 00:59:32;;;;;;;7.55;3.22;;;;;;;4.67;68.65;103484.72;5026163;28;20053;-56
2022/03/20 01:01:57;;;;;;;4.97;3.28;;;;;;;4.65;68.59;103481.16;5024942;28;20028;-56
2022/03/20 01:04:22;;;;;;;5.70;3.15;;;;;;;4.70;68.83;103473.50;5017681;28;20030;-51
2022/03/20 01:06:48;;;;;;;8.30;3.50;;;;;;;4.66;68.93;103469.88;5007013;28;20026;-54
2022/03/20 01:09:13;;;;;;;7.45;3.83;;;;;;;4.63;69.17;103472.38;5004876;28;20018;-56
2022/03/20 01:11:39;;;;;;;7.85;3.63;;;;;;;4.62;69.14;103470.63;5005264;28;20558;-56
2022/03/20 01:14:05;;;;;;;6.35;4.20;;;;;;;4.57;69.76;103464.38;5023052;28;20076;-57
2022/03/20 01:16:30;;;;;;;7.00;4.10;;;;;;;4.53;69.73;103458.13;5024922;28;20021;-58
2022/03/20 01:18:55;;;;;;;7.28;4.72;;;;;;;4.45;70.19;103450.03;5025761;28;20040;-54
2022/03/20 01:21:21;;;;;;;6.18;4.20;;;;;;;4.49;69.92;103446.69;5010358;28;20037;-56
2022/03/20 01:23:46;;;;;;;6.18;4.38;;;;;;;4.48;70.05;103444.06;5028091;28;20392;-55
2022/03/20 01:26:11;;;;;;;9.05;5.03;;;;;;;4.42;70.36;103436.88;5027913;28;20071;-56
2022/03/20 01:28:37;;;;;;;8.20;5.25;;;;;;;4.39;70.86;103431.53;5028248;28;20033;-60
2022/03/20 01:31:02;;;;;;;11.70;5.43;;;;;;;4.35;70.95;103429.69;5029249;28;20029;-53
2022/03/20 01:33:27;;;;;;;9.40;5.28;;;;;;;4.43;70.37;103423.00;5025648;28;20602;-57
2022/03/20 01:35:53;;;;;;;12.43;5.45;;;;;;;4.39;70.80;103423.72;5015932;28;20028;-55
2022/03/20 01:38:20;;;;;;;14.68;5.88;;;;;;;4.34;70.76;103415.75;5025793;28;20033;-56
2022/03/20 01:40:48;;;;;;;12.07;5.78;;;;;;;4.34;70.86;103418.38;5017598;28;20041;-58
2022/03/20 01:43:14;;;;;;;7.35;5.43;;;;;;;4.37;70.71;103409.75;5026244;28;20101;-55
2022/03/20 01:45:40;;;;;;;7.65;5.50;;;;;;;4.35;70.86;103408.78;5028498;28;20087;-56
2022/03/20 01:48:05;;;;;;;12.88;6.63;;;;;;;4.32;71.17;103396.53;5028517;28;20018;-56
2022/03/20 01:50:33;;;;;;;11.60;5.63;;;;;;;4.30;70.95;103406.03;5040510;28;20606;-54
2022/03/20 01:53:00;;;;;;;14.15;6.22;;;;;;;4.24;70.87;103400.63;5039049;28;20040;-55
2022/03/20 01:55:25;;;;;;;10.63;5.95;;;;;;;4.25;71.27;103395.41;5007381;28;20057;-54
2022/03/20 01:57:51;;;;;;;11.10;7.13;;;;;;;4.19;71.00;103390.03;5015910;28;20053;-55
2022/03/20 02:00:19;;;;;;;9.18;6.88;;;;;;;4.18;71.21;103393.44;5018947;28;20045;-54
2022/03/20 02:02:44;;;;;;;9.88;7.10;;;;;;;4.12;71.16;103388.91;5027445;28;20037;-54
2022/03/20 02:05:10;;;;;;;13.25;7.03;;;;;;;4.14;71.19;103381.13;5023795;28;20095;-55
2022/03/20 02:07:37;;;;;;;17.17;7.53;;;;;;;4.08;71.49;103376.59;5016620;28;20030;-56
2022/03/20 02:10:04;;;;;;;12.50;8.13;;;;;;;4.11;71.30;103375.81;5038810;28;20041;-55
2022/03/20 02:12:30;;;;;;;13.35;7.50;;;;;;;4.13;71.58;103380.22;5029870;28;20483;-57
2022/03/20 02:14:58;;;;;;;11.20;7.53;;;;;;;4.02;71.54;103363.34;5040201;28;20096;-57
2022/03/20 02:17:26;;;;;;;11.93;7.40;;;;;;;4.06;71.03;103359.97;5019416;28;20025;-59
2022/03/20 02:19:52;;;;;;;14.35;7.78;;;;;;;4.07;71.37;103360.88;4996802;28;20036;-56
2022/03/20 02:22:17;;;;;;;12.57;7.43;;;;;;;4.00;71.40;103351.97;5007633;28;20056;-55
2022/03/20 02:24:46;;;;;;;14.25;8.10;;;;;;;4.03;71.30;103357.25;5010135;28;20065;-57
2022/03/20 02:27:23;;;;;;;13.55;7.85;;;;;;;4.00;71.70;103358.06;5026994;28;20032;-56
2022/03/20 02:30:16;;;;;;;15.18;8.23;;;;;;;3.93;72.15;103345.63;5027622;28;20064;-56
2022/03/20 02:32:43;;;;;;;14.65;8.90;;;;;;;3.85;72.66;103341.91;5028697;28;20494;-59
2022/03/20 02:35:15;;;;;;;13.75;8.52;;;;;;;3.87;72.17;103328.06;5026066;28;20029;-56
2022/03/20 02:37:46;;;;;;;11.82;7.85;;;;;;;3.88;72.39;103334.16;5014839;28;20044;-55
2022/03/20 02:40:12;;;;;;;14.13;7.60;;;;;;;3.87;72.28;103324.56;5018434;28;20025;-55
2022/03/20 02:42:40;;;;;;;12.43;8.23;;;;;;;3.91;72.22;103316.88;5023280;28;20021;-57
2022/03/20 02:45:17;;;;;;;15.65;8.40;;;;;;;3.94;72.13;103316.09;5025137;28;20025;-56
2022/03/20 02:47:44;;;;;;;13.25;7.90;;;;;;;3.92;72.33;103310.81;5026273;28;20097;-55
2022/03/20 02:50:09;;;;;;;13.93;7.47;;;;;;;3.89;72.63;103312.47;5007451;28;20029;-57
2022/03/20 02:52:52;;;;;;;18.38;9.15;;;;;;;3.79;73.04;103296.50;5026472;28;20044;-57
2022/03/20 02:55:38;;;;;;;17.52;8.18;;;;;;;3.78;73.29;103294.72;5025031;28;20037;-53
2022/03/20 02:58:06;;;;;;;12.32;7.55;;;;;;;3.81;73.20;103300.88;5025570;28;20084;-52
2022/03/20 03:00:33;;;;;;;12.63;8.10;;;;;;;3.79;73.37;103299.09;5027095;28;20026;-55
2022/03/20 03:03:00;;;;;;;16.00;7.78;;;;;;;3.76;73.79;103295.47;5029795;28;20497;-56
2022/03/20 03:05:28;;;;;;;12.52;6.68;;;;;;;3.79;73.77;103295.59;5046493;28;20052;-56
2022/03/20 03:10:57;;;;;;;9.15;6.90;;;;;;;3.62;74.66;103280.28;5008691;28;20056;-56
2022/03/20 03:13:34;;;;;;;16.88;7.93;;;;;;;3.61;74.88;103277.63;5008334;28;20029;-57
2022/03/20 03:16:03;;;;;;;19.35;8.13;;;;;;;3.60;75.09;103278.44;5004907;28;20040;-55
2022/03/20 03:18:29;;;;;;;10.48;7.47;;;;;;;3.62;74.69;103276.78;5014675;28;20504;-58
2022/03/20 03:20:54;;;;;;;12.65;7.45;;;;;;;3.55;75.35;103291.31;5026124;28;20177;-56
2022/03/20 03:23:20;;;;;;;12.52;7.05;;;;;;;3.48;75.92;103285.00;5012003;28;20025;-55
2022/03/20 03:25:46;;;;;;;14.40;7.32;;;;;;;3.45;75.88;103277.06;5026145;28;20040;-55
2022/03/20 03:28:11;;;;;;;15.32;7.10;;;;;;;3.47;75.95;103283.22;5025464;28;20048;-58
2022/03/20 03:30:41;;;;;;;11.02;7.50;;;;;;;3.47;76.13;103280.63;5026438;28;20033;-58
2022/03/20 03:33:06;;;;;;;9.23;6.88;;;;;;;3.40;76.54;103278.59;5008206;28;20456;-57
2022/03/20 03:38:18;;;;;;;11.25;6.90;;;;;;;3.41;76.40;103264.75;5004096;28;20048;-55
2022/03/20 03:40:45;;;;;;;11.40;6.97;;;;;;;3.40;76.55;103265.56;5026126;28;20021;-56
2022/03/20 03:43:20;;;;;;;18.83;8.18;;;;;;;3.43;76.51;103257.88;5025974;28;20459;-59
2022/03/20 03:45:46;;;;;;;12.70;7.03;;;;;;;3.41;76.44;103252.59;5025315;28;20369;-56
2022/03/20 03:48:12;;;;;;;12.70;6.78;;;;;;;3.47;76.12;103253.66;5006078;28;20025;-54
2022/03/20 03:50:38;;;;;;;13.57;7.00;;;;;;;3.42;76.14;103250.88;5026861;28;20506;-57
2022/03/20 03:53:04;;;;;;;14.40;7.20;;;;;;;3.32;76.43;103246.19;5023551;28;20029;-56
2022/03/20 03:55:31;;;;;;;14.80;8.70;;;;;;;3.29;76.81;103242.63;5026145;28;20032;-56
2022/03/20 03:57:56;;;;;;;11.40;7.13;;;;;;;3.26;76.94;103239.94;5026105;28;20048;-57
2022/03/20 04:00:21;;;;;;;12.13;7.60;;;;;;;3.24;76.88;103236.38;5008193;28;20034;-57
2022/03/20 04:02:48;;;;;;;15.35;7.57;;;;;;;3.25;76.94;103235.53;5026408;28;20018;-56
2022/03/20 04:05:15;;;;;;;13.20;7.78;;;;;;;3.20;76.97;103242.31;5025938;28;20033;-56
2022/03/20 04:07:40;;;;;;;13.02;7.63;;;;;;;3.20;77.08;103234.50;5024992;28;20354;-55
2022/03/20 04:10:06;;;;;;;12.65;7.63;;;;;;;3.19;76.63;103224.91;5026218;28;20305;-60
2022/03/20 04:12:33;;;;;;;13.95;7.35;;;;;;;3.14;77.08;103214.34;5026312;28;20782;-55
2022/03/20 04:15:02;;;;;;;14.00;7.10;;;;;;;3.09;77.15;103207.16;5007638;28;20014;-56
2022/03/20 04:17:30;;;;;;;17.27;8.55;;;;;;;3.09;77.40;103207.16;5026020;28;20037;-55
2022/03/20 04:19:57;;;;;;;17.40;8.48;;;;;;;3.02;77.46;103206.06;5026166;28;20530;-56
2022/03/20 04:22:22;;;;;;;14.15;8.00;;;;;;;3.03;77.21;103200.91;5024495;28;20041;-55
2022/03/20 04:24:50;;;;;;;13.15;7.70;;;;;;;2.98;77.81;103199.84;5018930;28;20034;-56
2022/03/20 04:27:15;;;;;;;16.60;8.45;;;;;;;2.90;78.06;103201.31;5025695;28;20048;-58
2022/03/20 04:29:40;;;;;;;13.57;8.18;;;;;;;2.87;77.84;103201.19;5025943;28;20484;-58
2022/03/20 04:32:07;;;;;;;18.58;8.70;;;;;;;2.83;77.75;103188.91;5026296;28;20443;-55
2022/03/20 04:34:33;;;;;;;18.23;8.90;;;;;;;2.79;77.99;103187.88;5025764;28;20034;-57
2022/03/20 04:36:58;;;;;;;12.63;8.68;;;;;;;2.79;78.08;103187.88;5022074;28;20075;-56
2022/03/20 04:39:24;;;;;;;14.93;8.20;;;;;;;2.77;78.18;103192.16;5025368;28;20379;-56
2022/03/20 04:41:50;;;;;;;16.63;9.18;;;;;;;2.73;78.06;103180.75;5025722;28;20468;-58
2022/03/20 04:44:15;;;;;;;16.65;9.38;;;;;;;2.70;78.07;103178.03;5025175;28;20025;-56
2022/03/20 04:46:40;;;;;;;15.80;9.32;;;;;;;2.72;78.41;103181.56;5025860;28;20504;-55
2022/03/20 05:00:03;;;;;;;16.17;9.23;;;;;;;2.65;77.84;103162.22;5029603;28;20564;-56
2022/03/20 05:02:28;;;;;;;18.75;8.98;;;;;;;2.67;77.39;103153.59;5029381;28;20479;-57
2022/03/20 05:04:54;;;;;;;14.40;9.00;;;;;;;2.67;77.52;103158.81;5029712;28;20048;-56
2022/03/20 05:07:19;;;;;;;17.83;9.98;;;;;;;2.67;77.47;103153.59;5027890;28;20406;-55
2022/03/20 05:15:13;;;;;;;15.35;9.75;;;;;;;2.61;77.06;103130.81;5028577;28;20037;-53
2022/03/20 05:17:38;;;;;;;16.25;9.88;;;;;;;2.59;77.07;103127.28;5029153;28;20021;-57
2022/03/20 05:20:04;;;;;;;15.68;9.45;;;;;;;2.60;77.12;103121.25;5029617;28;20047;-56
2022/03/20 05:22:31;;;;;;;16.67;9.75;;;;;;;2.57;76.86;103113.31;5027561;28;20079;-56
2022/03/20 05:24:56;;;;;;;20.02;9.75;;;;;;;2.57;76.81;103108.09;5029395;28;20339;-55
2022/03/20 05:27:22;;;;;;;18.80;9.20;;;;;;;2.59;76.43;103109.06;5028692;28;20080;-57
2022/03/20 05:29:47;;;;;;;16.15;9.57;;;;;;;2.68;76.07;103111.97;5024593;28;20051;-55
2022/03/20 05:32:13;;;;;;;20.10;9.80;;;;;;;2.64;76.07;103095.38;5028762;28;20030;-59
2022/03/20 05:34:39;;;;;;;19.63;10.68;;;;;;;2.57;76.21;103093.38;5011276;28;20029;-53
2022/03/20 05:37:07;;;;;;;16.48;10.02;;;;;;;2.59;76.17;103098.66;5027837;28;20489;-54
2022/03/20 05:39:33;;;;;;;19.92;10.68;;;;;;;2.54;76.29;103098.47;5029028;28;20040;-56
2022/03/20 05:41:58;;;;;;;18.75;10.73;;;;;;;2.53;76.30;103092.38;5010946;28;20030;-54
2022/03/20 05:44:25;;;;;;;20.40;10.80;;;;;;;2.50;76.21;103097.47;5027695;28;20083;-57
2022/03/20 05:46:51;;;;;;;16.52;9.70;;;;;;;2.59;75.69;103086.50;5028288;28;20104;-56
2022/03/20 05:49:18;;;;;;;18.52;10.50;;;;;;;2.56;75.94;103094.19;5028221;28;20036;-55
2022/03/20 05:51:43;;;;;;;17.00;9.55;;;;;;;2.55;76.04;103095.03;5027041;28;20022;-57
2022/03/20 05:54:09;;;;;;;19.33;10.10;;;;;;;2.55;75.93;103083.72;5027894;28;20029;-57
2022/03/20 05:59:19;;;;;;;20.88;10.68;;;;;;;2.57;75.48;103071.66;5027752;28;20033;-55
2022/03/20 06:01:45;;;;;;;21.00;10.88;;;;;;;2.65;75.34;103065.91;5028160;28;20029;-57
2022/03/20 06:04:10;;;;;;;16.30;9.07;;;;;;;2.72;74.99;103074.84;5027978;28;20495;-54
2022/03/20 06:06:37;;;;;;;18.27;10.10;;;;;;;2.80;74.81;103071.59;5026605;28;20065;-55
2022/03/20 06:09:03;;;;;;;20.88;10.85;;;;;;;2.81;74.57;103070.75;5028357;28;20383;-56
2022/03/20 06:11:28;;;;;;;18.45;10.02;;;;;;;2.90;74.32;103063.28;5027346;28;20049;-55
2022/03/20 06:13:56;;;;;;;18.20;10.38;;;;;;;2.97;73.90;103065.25;5027675;28;20072;-56
2022/03/20 06:16:22;;;;;;;19.38;10.75;;;;;;;3.01;73.67;103064.50;5027124;28;20387;-55
2022/03/20 06:18:48;;;;;;;18.70;10.70;;;;;;;3.02;73.16;103055.88;5040122;28;20037;-56
2022/03/20 06:21:14;;;;;;;17.92;10.45;;;;;;;3.14;72.85;103057.13;5046621;28;20025;-55
2022/03/20 06:23:39;;;;;;;20.13;11.52;;;;;;;3.27;72.56;103055.78;5046778;28;20036;-55
2022/03/20 06:26:05;;;;;;;19.33;10.45;;;;;;;3.31;72.77;103056.78;5040013;28;20116;-57
2022/03/20 06:28:30;;;;;;;20.23;10.30;;;;;;;3.32;72.19;103053.34;5027188;28;20601;-56
2022/03/20 06:30:56;;;;;;;16.08;9.85;;;;;;;3.43;71.60;103059.75;5026920;28;20084;-57
2022/03/20 06:33:25;;;;;;;18.85;10.60;;;;;;;3.58;70.92;103059.38;5030909;28;20105;-60
2022/03/20 06:35:51;;;;;;;16.73;10.05;;;;;;;3.66;70.80;103059.63;5026701;28;20128;-57
2022/03/20 06:38:16;;;;;;;17.38;9.85;;;;;;;3.66;70.10;103044.88;5027244;28;20025;-58
2022/03/20 06:40:42;;;;;;;17.50;9.82;;;;;;;3.81;69.79;103051.38;5025703;28;20079;-55
2022/03/20 06:43:07;;;;;;;20.50;11.13;;;;;;;3.81;69.17;103047.88;5027091;28;20025;-59
2022/03/20 06:45:32;;;;;;;16.60;10.32;;;;;;;3.82;68.53;103049.66;5027955;28;20040;-60
2022/03/20 06:47:59;;;;;;;16.40;9.57;;;;;;;3.92;68.37;103051.72;5026764;28;20380;-60
2022/03/20 06:50:24;;;;;;;19.40;10.23;;;;;;;3.92;67.72;103056.94;5005134;28;20046;-58
2022/03/20 06:52:50;;;;;;;16.90;10.65;;;;;;;4.00;67.74;103041.50;5008871;28;20022;-57
2022/03/20 06:55:16;;;;;;;15.95;10.32;;;;;;;4.01;68.07;103038.91;5011503;28;20495;-60
2022/03/20 06:57:42;;;;;;;17.73;10.68;;;;;;;4.08;67.25;103039.09;5011922;28;20061;-57
2022/03/20 07:00:09;;;;;;;18.55;10.68;;;;;;;4.07;66.86;103037.34;4993000;28;20445;-59
2022/03/20 07:02:34;;;;;;;20.05;11.50;;;;;;;4.15;66.22;103031.50;5010652;28;20040;-60
2022/03/20 07:05:00;;;;;;;21.25;11.10;;;;;;;4.18;66.13;103025.47;5009665;28;20479;-58
2022/03/20 07:07:26;;;;;;;18.23;10.57;;;;;;;4.24;65.54;103028.25;5019867;28;20249;-57
2022/03/20 07:09:52;;;;;;;18.55;11.52;;;;;;;4.34;65.57;103018.97;5017197;28;20049;-64
2022/03/20 07:12:17;;;;;;;18.02;10.40;;;;;;;4.54;65.27;103022.09;5009019;28;20034;-59
2022/03/20 07:14:43;;;;;;;21.08;11.40;;;;;;;4.53;64.66;103012.53;5009367;28;20026;-57
2022/03/20 07:17:11;;;;;;;19.25;11.40;;;;;;;4.64;64.00;103020.63;5018719;28;20101;-58
2022/03/20 07:19:37;;;;;;;16.38;10.68;;;;;;;4.73;62.94;103017.34;5023327;28;20109;-58
2022/03/20 07:22:04;;;;;;;17.30;11.23;;;;;;;4.83;63.21;103012.38;5025617;28;20117;-58
2022/03/20 07:24:29;;;;;;;25.05;11.48;;;;;;;4.82;62.82;103013.22;5025612;28;20021;-57
2022/03/20 07:29:39;;;;;;;20.30;10.95;;;;;;;4.89;62.86;103004.69;5011347;28;20040;-59
2022/03/20 07:32:06;;;;;;;21.23;11.50;;;;;;;4.86;62.04;103004.63;5017197;28;20409;-61
2022/03/20 07:34:36;;;;;;;20.48;11.10;;;;;;;4.80;62.32;103002.75;5009894;28;20332;-61
2022/03/20 07:37:03;;;;;;;18.90;11.35;;;;;;;4.90;62.36;102999.50;5008137;28;20021;-59
2022/03/20 07:39:29;;;;;;;17.58;11.13;;;;;;;4.86;62.97;102991.56;5011539;28;20028;-59
2022/03/20 07:41:56;;;;;;;21.77;11.95;;;;;;;4.93;61.76;102989.13;5018210;28;20231;-55
2022/03/20 07:44:22;;;;;;;22.65;11.50;;;;;;;4.90;61.59;102983.84;5026378;28;20022;-58
2022/03/20 07:46:48;;;;;;;17.60;10.75;;;;;;;4.95;60.87;102973.50;5026037;28;20029;-57
2022/03/20 07:49:14;;;;;;;19.90;11.30;;;;;;;4.88;61.38;102974.19;5026628;28;20075;-58
2022/03/20 07:51:40;;;;;;;21.10;11.98;;;;;;;4.78;61.76;102976.56;5030262;28;20025;-58
2022/03/20 07:54:05;;;;;;;17.08;11.35;;;;;;;4.85;61.15;102958.44;5007937;28;20044;-62
2022/03/20 07:56:34;;;;;;;20.38;11.95;;;;;;;4.91;61.06;102969.06;5021730;28;20029;-58
2022/03/20 07:59:01;;;;;;;23.98;11.35;;;;;;;5.00;60.41;102964.03;5016361;28;20092;-60
2022/03/20 08:01:28;;;;;;;22.90;13.10;;;;;;;4.99;60.29;102949.19;5011308;28;20518;-55
2022/03/20 08:03:55;;;;;;;22.90;11.75;;;;;;;5.15;59.60;102960.03;5011311;28;20029;-57
2022/03/20 08:06:21;;;;;;;20.45;11.98;;;;;;;5.07;59.71;102965.06;5010048;28;20050;-57
2022/03/20 08:08:46;;;;;;;20.45;11.00;;;;;;;5.10;59.68;102959.03;5008033;28;20050;-59
2022/03/20 08:11:12;;;;;;;16.33;11.30;;;;;;;5.17;59.09;102945.25;5007942;28;20033;-55
2022/03/20 08:13:37;;;;;;;18.08;11.88;;;;;;;5.14;58.99;102947.78;4993962;28;20440;-58
2022/03/20 08:16:03;;;;;;;21.40;11.70;;;;;;;5.14;59.28;102946.06;5008949;28;20029;-57
2022/03/20 08:18:28;;;;;;;21.45;11.23;;;;;;;5.14;59.58;102953.91;5006710;28;20447;-56
2022/03/20 08:20:54;;;;;;;18.20;11.30;;;;;;;5.18;59.14;102952.25;5012402;28;20336;-56
2022/03/20 08:23:19;;;;;;;23.50;12.50;;;;;;;5.31;59.44;102946.47;5019176;28;20136;-57
2022/03/20 08:25:45;;;;;;;25.48;12.35;;;;;;;5.37;59.86;102942.19;5020679;28;20085;-57
2022/03/20 08:28:11;;;;;;;21.70;12.10;;;;;;;5.57;58.79;102935.66;5025192;28;20123;-54
2022/03/20 08:30:37;;;;;;;19.95;12.10;;;;;;;5.76;58.28;102933.44;5010818;28;20124;-55
2022/03/20 08:33:02;;;;;;;21.23;11.82;;;;;;;5.78;58.08;102936.94;5027084;28;20030;-54
2022/03/20 08:35:28;;;;;;;19.23;12.00;;;;;;;5.72;58.20;102939.44;5027673;28;20034;-55
2022/03/20 08:37:53;;;;;;;20.80;12.02;;;;;;;5.71;57.73;102937.69;5029352;28;20029;-57
2022/03/20 08:40:20;;;;;;;18.10;11.98;;;;;;;5.85;57.28;102939.69;5027509;28;20029;-54
2022/03/20 08:42:54;;;;;;;22.65;12.77;;;;;;;5.91;57.82;102938.09;5002838;28;20041;-54
2022/03/20 08:45:21;;;;;;;21.35;12.60;;;;;;;5.91;56.55;102931.97;5022894;28;20024;-57
2022/03/20 08:47:47;;;;;;;21.00;12.82;;;;;;;6.22;55.41;102923.81;5028233;28;20103;-54
2022/03/20 08:50:14;;;;;;;21.98;13.00;;;;;;;6.12;54.95;102918.44;5028529;28;20041;-55
2022/03/20 08:52:40;;;;;;;24.33;11.68;;;;;;;6.20;54.50;102910.72;5041958;28;20502;-52
2022/03/20 08:55:10;;;;;;;20.23;12.23;;;;;;;6.06;54.96;102905.25;5049678;28;20021;-55
2022/03/20 08:57:48;;;;;;;16.67;11.50;;;;;;;6.29;54.01;102908.25;5031484;28;20056;-55
2022/03/20 09:00:15;;;;;;;19.60;12.02;;;;;;;6.39;54.21;102911.94;5023918;28;20487;-50
2022/03/20 09:02:48;;;;;;;20.95;12.32;;;;;;;6.28;53.98;102914.38;5028872;28;20411;-50
2022/03/20 09:05:18;;;;;;;20.20;12.25;;;;;;;6.25;54.27;102903.84;5026936;28;20025;-59
2022/03/20 09:07:45;;;;;;;23.30;12.23;;;;;;;6.34;54.01;102908.34;5026874;28;20418;-54
2022/03/20 09:10:12;;;;;;;16.95;12.05;;;;;;;6.30;54.22;102902.16;5026897;28;20041;-54
2022/03/20 09:12:38;;;;;;;24.33;13.95;;;;;;;6.24;54.46;102909.94;5025404;28;20080;-56
2022/03/20 09:15:05;;;;;;;19.10;11.18;;;;;;;6.37;53.58;102911.03;5009955;28;20029;-54
2022/03/20 09:20:15;;;;;;;19.80;11.48;;;;;;;6.19;54.16;102904.63;5026009;28;20045;-57
2022/03/20 09:22:41;;;;;;;22.05;12.40;;;;;;;6.19;54.13;102898.47;5010638;28;20047;-58
2022/03/20 09:25:07;;;;;;;22.10;14.02;;;;;;;5.98;55.17;102904.16;5029387;28;20021;-61
2022/03/20 09:27:33;;;;;;;21.95;12.07;;;;;;;6.09;55.42;102900.06;5028361;28;20052;-56
2022/03/20 09:29:58;;;;;;;26.95;14.30;;;;;;;5.93;55.66;102897.13;5027891;28;20503;-55
2022/03/20 09:32:24;;;;;;;24.75;12.43;;;;;;;6.10;55.23;102893.97;5028288;28;20025;-57
2022/03/20 09:34:49;;;;;;;19.17;12.50;;;;;;;6.23;55.27;102896.81;4986174;28;20110;-55
2022/03/20 09:37:14;;;;;;;20.08;12.68;;;;;;;6.35;54.39;102889.16;4990565;28;20291;-56
2022/03/20 09:39:40;;;;;;;24.85;13.23;;;;;;;6.49;54.25;102876.28;4994862;28;20372;-55
2022/03/20 09:42:06;;;;;;;20.25;13.30;;;;;;;6.51;53.89;102885.06;5008819;28;20021;-55
2022/03/20 09:44:33;;;;;;;23.35;13.18;;;;;;;6.59;53.68;102876.44;4990583;28;20022;-56
2022/03/20 09:47:00;;;;;;;25.20;13.32;;;;;;;6.58;54.87;102886.03;4993078;28;20030;-55
2022/03/20 09:49:25;;;;;;;25.60;13.63;;;;;;;6.62;53.57;102886.97;4996471;28;20029;-56
2022/03/20 09:51:52;;;;;;;25.30;13.90;;;;;;;6.64;53.20;102891.38;4991742;28;20821;-56
2022/03/20 09:54:18;;;;;;;23.15;14.70;;;;;;;6.74;52.70;102900.25;5017482;28;20499;-58
2022/03/20 09:56:43;;;;;;;23.85;14.13;;;;;;;6.85;52.98;102902.16;5021988;28;20075;-52
2022/03/20 09:59:09;;;;;;;24.45;13.50;;;;;;;7.05;51.98;102902.47;5021104;28;20037;-56
2022/03/20 10:01:35;;;;;;;24.40;14.00;;;;;;;7.32;51.40;102907.19;5026837;28;20022;-60
2022/03/20 10:04:13;;;;;;;19.45;13.50;;;;;;;7.19;51.47;102902.63;5027945;28;20076;-61
2022/03/20 10:06:40;;;;;;;27.90;14.57;;;;;;;7.14;51.55;102901.72;5024823;28;20139;-58
2022/03/20 10:09:12;;;;;;;21.05;14.10;;;;;;;7.05;50.63;102894.59;5009898;28;20037;-57
2022/03/20 10:11:49;;;;;;;23.67;14.65;;;;;;;6.90;51.08;102892.63;5004038;28;20053;-58
2022/03/20 10:14:19;;;;;;;25.10;14.05;;;;;;;6.89;50.82;102881.25;5018299;28;20037;-56
2022/03/20 10:16:50;;;;;;;21.67;14.13;;;;;;;7.06;50.54;102878.91;5016584;28;20034;-56
2022/03/20 10:19:28;;;;;;;24.50;14.10;;;;;;;7.06;51.65;102868.41;5007673;28;20025;-57
2022/03/20 10:22:11;;;;;;;21.40;13.68;;;;;;;7.26;51.04;102869.53;5019567;28;20013;-59
2022/03/20 10:24:38;;;;;;;27.60;14.65;;;;;;;7.46;50.07;102852.28;5026522;28;20033;-59
2022/03/20 10:27:05;;;;;;;28.85;15.77;;;;;;;7.42;50.21;102860.09;5025581;28;20495;-55
2022/03/20 10:29:32;;;;;;;25.40;15.80;;;;;;;7.49;50.03;102854.06;5026062;28;20594;-57
2022/03/20 10:32:05;;;;;;;23.63;14.60;;;;;;;7.87;49.60;102846.59;5009604;28;20037;-59
2022/03/20 10:34:48;;;;;;;24.73;15.52;;;;;;;8.34;49.10;102843.50;5008660;28;20037;-60
2022/03/20 10:37:14;;;;;;;27.90;15.68;;;;;;;8.38;49.24;102822.50;5025929;28;20068;-58
2022/03/20 10:39:42;;;;;;;24.05;16.00;;;;;;;7.75;49.86;102816.75;5029134;28;20072;-59
2022/03/20 10:42:10;;;;;;;27.23;16.48;;;;;;;7.36;51.03;102813.69;5046228;28;20235;-61
2022/03/20 10:44:38;;;;;;;32.83;18.05;;;;;;;7.08;50.22;102813.38;5045179;28;20648;-59
2022/03/20 10:47:16;;;;;;;26.55;16.15;;;;;;;7.18;51.37;102814.34;5045477;28;20031;-58
2022/03/20 10:50:06;;;;;;;25.70;16.67;;;;;;;7.19;52.17;102826.59;5024707;28;20022;-59
2022/03/20 10:52:35;;;;;;;26.35;16.92;;;;;;;7.28;52.69;102828.44;4996631;28;20119;-58
2022/03/20 10:55:06;;;;;;;27.63;17.95;;;;;;;7.37;52.12;102825.94;5006883;28;20033;-59
2022/03/20 10:57:32;;;;;;;27.40;17.70;;;;;;;7.31;52.92;102828.50;5011940;28;20029;-57
2022/03/20 11:00:00;;;;;;;28.17;17.35;;;;;;;7.63;52.15;102816.59;5014876;28;20032;-56
2022/03/20 11:02:25;;;;;;;32.28;18.40;;;;;;;7.74;51.88;102817.63;5016744;28;20010;-57
2022/03/20 11:04:52;;;;;;;28.00;17.33;;;;;;;8.09;51.00;102822.28;5017756;28;20032;-57
2022/03/20 11:07:18;;;;;;;26.15;17.88;;;;;;;8.08;50.65;102823.16;5013491;28;20029;-57
2022/03/20 11:09:48;;;;;;;24.77;17.85;;;;;;;8.13;50.50;102823.19;5015454;28;20045;-59
2022/03/20 11:12:34;;;;;;;26.13;16.88;;;;;;;8.07;50.78;102834.50;5016904;28;20105;-58
2022/03/20 11:15:06;;;;;;;28.35;17.48;;;;;;;8.00;50.48;102837.97;5016688;28;20034;-56
2022/03/20 11:17:40;;;;;;;27.38;15.90;;;;;;;7.81;49.23;102834.28;5016614;28;20114;-53
2022/03/20 11:20:07;;;;;;;27.27;15.43;;;;;;;7.67;48.77;102836.75;5027301;28;20445;-58
2022/03/20 11:22:36;;;;;;;23.38;15.73;;;;;;;7.67;49.44;102836.75;5008882;28;20025;-54
2022/03/20 11:25:03;;;;;;;28.58;16.77;;;;;;;7.59;49.07;102837.56;5020081;28;20560;-57
2022/03/20 11:27:30;;;;;;;27.85;15.88;;;;;;;7.64;49.77;102836.72;5005181;28;20163;-57
2022/03/20 11:30:04;;;;;;;31.77;17.48;;;;;;;7.39;51.42;102836.44;5025674;28;20064;-54
2022/03/20 11:32:29;;;;;;;26.00;17.85;;;;;;;7.09;53.49;102836.09;5007842;28;20190;-60
2022/03/20 11:34:55;;;;;;;28.05;17.05;;;;;;;7.24;54.05;102835.41;5024664;28;20512;-60
2022/03/20 11:37:20;;;;;;;33.15;17.58;;;;;;;7.51;54.33;102843.59;5022540;28;20029;-60
2022/03/20 11:40:09;;;;;;;27.65;18.23;;;;;;;7.58;54.29;102835.81;5008152;28;20018;-55
2022/03/20 11:42:35;;;;;;;29.08;17.33;;;;;;;7.63;54.91;102837.59;5025428;28;20034;-54
2022/03/20 11:45:00;;;;;;;27.17;17.48;;;;;;;8.25;53.21;102832.91;5025563;28;20395;-56
2022/03/20 11:47:30;;;;;;;29.80;17.88;;;;;;;8.54;54.01;102850.69;5025263;28;20013;-59
2022/03/20 11:50:26;;;;;;;30.65;18.38;;;;;;;8.49;54.66;102852.34;5024830;28;20483;-56
2022/03/20 11:53:04;;;;;;;30.83;19.08;;;;;;;8.27;55.75;102853.94;5023228;28;20026;-61